sensor_id;sensor_type;location;lat;lon;timestamp;pressure;altitude;pressure_sealevel;temperature;humidity
32033;BME280;31720;52.638;9.216;2023-04-20T00:02:25;101893.59;;;8.58;67.68
32033;BME280;31720;52.638;9.216;2023-04-20T00:05:27;101889.72;;;8.39;69.18
32033;BME280;31720;52.638;9.216;2023-04-20T00:08:29;101895.25;;;8.27;70.85
32033;BME280;31720;52.638;9.216;2023-04-20T00:11:32;101892.91;;;8.16;73.99
32033;BME280;31720;52.638;9.216;2023-04-20T00:14:33;101906.22;;;8.07;75.12
32033;BME280;31720;52.638;9.216;2023-04-20T00:17:36;101889.25;;;7.87;76.30
32033;BME280;31720;52.638;9.216;2023-04-20T00:20:37;101880.41;;;7.92;77.45
32033;BME280;31720;52.638;9.216;2023-04-20T00:23:39;101866.50;;;7.89;78.03
32033;BME280;31720;52.638;9.216;2023-04-20T00:26:42;101871.31;;;7.71;78.96
32033;BME280;31720;52.638;9.216;2023-04-20T00:29:44;101871.34;;;7.69;79.80
32033;BME280;31720;52.638;9.216;2023-04-20T00:32:45;101889.59;;;7.72;80.61
32033;BME280;31720;52.638;9.216;2023-04-20T00:35:46;101889.34;;;7.83;80.61
32033;BME280;31720;52.638;9.216;2023-04-20T00:38:48;101876.41;;;7.77;80.35
32033;BME280;31720;52.638;9.216;2023-04-20T00:41:51;101872.22;;;7.70;80.45
32033;BME280;31720;52.638;9.216;2023-04-20T00:44:52;101863.50;;;7.69;80.57
32033;BME280;31720;52.638;9.216;2023-04-20T00:47:54;101860.94;;;7.68;80.79
32033;BME280;31720;52.638;9.216;2023-04-20T00:50:55;101852.41;;;7.58;81.43
32033;BME280;31720;52.638;9.216;2023-04-20T00:53:57;101849.88;;;7.55;81.85
32033;BME280;31720;52.638;9.216;2023-04-20T00:57:01;101836.81;;;7.53;82.37
32033;BME280;31720;52.638;9.216;2023-04-20T01:00:05;101839.53;;;7.50;82.84
32033;BME280;31720;52.638;9.216;2023-04-20T01:03:07;101839.84;;;7.36;83.52
32033;BME280;31720;52.638;9.216;2023-04-20T01:06:09;101834.78;;;7.29;84.03
32033;BME280;31720;52.638;9.216;2023-04-20T01:09:11;101844.97;;;7.40;84.78
32033;BME280;31720;52.638;9.216;2023-04-20T01:12:14;101841.59;;;7.36;84.49
32033;BME280;31720;52.638;9.216;2023-04-20T01:15:15;101830.75;;;7.12;86.02
32033;BME280;31720;52.638;9.216;2023-04-20T01:18:16;101830.72;;;7.16;86.17
32033;BME280;31720;52.638;9.216;2023-04-20T01:21:19;101828.06;;;7.17;86.07
32033;BME280;31720;52.638;9.216;2023-04-20T01:24:23;101829.03;;;7.13;87.17
32033;BME280;31720;52.638;9.216;2023-04-20T01:27:24;101833.28;;;7.17;87.46
32033;BME280;31720;52.638;9.216;2023-04-20T01:30:26;101824.66;;;7.14;87.89
32033;BME280;31720;52.638;9.216;2023-04-20T01:33:27;101817.50;;;7.22;88.35
32033;BME280;31720;52.638;9.216;2023-04-20T01:36:29;101824.28;;;7.30;87.74
32033;BME280;31720;52.638;9.216;2023-04-20T01:39:33;101807.94;;;7.21;88.29
32033;BME280;31720;52.638;9.216;2023-04-20T01:42:35;101807.44;;;7.05;89.22
32033;BME280;31720;52.638;9.216;2023-04-20T01:45:36;101806.31;;;7.15;89.44
32033;BME280;31720;52.638;9.216;2023-04-20T01:48:38;101806.06;;;7.26;89.75
32033;BME280;31720;52.638;9.216;2023-04-20T01:51:39;101802.38;;;7.36;89.58
32033;BME280;31720;52.638;9.216;2023-04-20T01:54:42;101812.16;;;7.26;89.92
32033;BME280;31720;52.638;9.216;2023-04-20T01:57:44;101814.78;;;7.26;89.27
32033;BME280;31720;52.638;9.216;2023-04-20T02:00:45;101792.13;;;7.27;90.93
32033;BME280;31720;52.638;9.216;2023-04-20T02:03:47;101795.78;;;7.20;91.07
32033;BME280;31720;52.638;9.216;2023-04-20T02:06:49;101780.28;;;7.10;91.49
32033;BME280;31720;52.638;9.216;2023-04-20T02:09:52;101777.63;;;7.12;92.62
32033;BME280;31720;52.638;9.216;2023-04-20T02:12:53;101775.88;;;7.14;91.66
32033;BME280;31720;52.638;9.216;2023-04-20T02:15:54;101778.50;;;7.12;92.76
32033;BME280;31720;52.638;9.216;2023-04-20T02:18:56;101786.22;;;7.19;92.78
32033;BME280;31720;52.638;9.216;2023-04-20T02:21:57;101798.53;;;7.12;93.60
32033;BME280;31720;52.638;9.216;2023-04-20T02:25:00;101791.81;;;7.02;94.67
32033;BME280;31720;52.638;9.216;2023-04-20T02:28:02;101773.66;;;6.96;95.22
32033;BME280;31720;52.638;9.216;2023-04-20T02:31:04;101767.59;;;6.94;95.34
32033;BME280;31720;52.638;9.216;2023-04-20T02:34:05;101767.69;;;6.89;95.60
32033;BME280;31720;52.638;9.216;2023-04-20T02:37:08;101766.69;;;6.96;96.19
32033;BME280;31720;52.638;9.216;2023-04-20T02:40:11;101770.34;;;6.88;96.77
32033;BME280;31720;52.638;9.216;2023-04-20T02:43:13;101771.97;;;6.93;97.47
32033;BME280;31720;52.638;9.216;2023-04-20T02:46:16;101763.97;;;6.99;97.20
32033;BME280;31720;52.638;9.216;2023-04-20T02:49:17;101763.47;;;6.83;96.88
32033;BME280;31720;52.638;9.216;2023-04-20T02:52:18;101770.09;;;7.00;97.33
32033;BME280;31720;52.638;9.216;2023-04-20T02:55:21;101777.03;;;6.99;97.37
32033;BME280;31720;52.638;9.216;2023-04-20T02:58:23;101759.44;;;7.07;97.54
32033;BME280;31720;52.638;9.216;2023-04-20T03:01:24;101763.84;;;7.05;96.62
32033;BME280;31720;52.638;9.216;2023-04-20T03:04:26;101750.25;;;6.90;98.90
32033;BME280;31720;52.638;9.216;2023-04-20T03:07:27;101754.63;;;6.91;98.92
32033;BME280;31720;52.638;9.216;2023-04-20T03:10:30;101754.66;;;6.88;99.65
32033;BME280;31720;52.638;9.216;2023-04-20T03:13:31;101758.19;;;6.86;99.08
32033;BME280;31720;52.638;9.216;2023-04-20T03:16:33;101743.34;;;6.87;100.00
32033;BME280;31720;52.638;9.216;2023-04-20T03:19:34;101740.66;;;6.90;100.00
32033;BME280;31720;52.638;9.216;2023-04-20T03:22:36;101737.19;;;6.90;100.00
32033;BME280;31720;52.638;9.216;2023-04-20T03:25:38;101752.81;;;6.93;100.00
32033;BME280;31720;52.638;9.216;2023-04-20T03:28:40;101739.75;;;6.93;100.00
32033;BME280;31720;52.638;9.216;2023-04-20T03:31:41;101744.00;;;6.97;100.00
32033;BME280;31720;52.638;9.216;2023-04-20T03:34:43;101740.75;;;6.85;100.00
32033;BME280;31720;52.638;9.216;2023-04-20T03:37:44;101741.56;;;6.89;100.00
32033;BME280;31720;52.638;9.216;2023-04-20T03:40:47;101750.41;;;6.83;100.00
32033;BME280;31720;52.638;9.216;2023-04-20T03:43:49;101748.38;;;6.96;100.00
32033;BME280;31720;52.638;9.216;2023-04-20T03:46:50;101755.28;;;6.99;100.00
32033;BME280;31720;52.638;9.216;2023-04-20T03:49:51;101757.13;;;6.94;100.00
32033;BME280;31720;52.638;9.216;2023-04-20T03:52:53;101764.13;;;6.93;100.00
32033;BME280;31720;52.638;9.216;2023-04-20T03:55:56;101757.84;;;7.02;100.00
32033;BME280;31720;52.638;9.216;2023-04-20T03:58:57;101763.31;;;6.91;100.00
32033;BME280;31720;52.638;9.216;2023-04-20T04:02:00;101753.16;;;6.77;100.00
32033;BME280;31720;52.638;9.216;2023-04-20T04:05:05;101762.66;;;6.80;100.00
32033;BME280;31720;52.638;9.216;2023-04-20T04:08:07;101755.47;;;6.90;100.00
32033;BME280;31720;52.638;9.216;2023-04-20T04:11:10;101753.81;;;6.85;100.00
32033;BME280;31720;52.638;9.216;2023-04-20T04:14:11;101753.06;;;6.80;100.00
32033;BME280;31720;52.638;9.216;2023-04-20T04:17:13;101755.53;;;6.88;100.00
32033;BME280;31720;52.638;9.216;2023-04-20T04:20:15;101752.16;;;6.83;100.00
32033;BME280;31720;52.638;9.216;2023-04-20T04:23:16;101756.53;;;6.81;100.00
32033;BME280;31720;52.638;9.216;2023-04-20T04:26:19;101757.56;;;6.74;100.00
32033;BME280;31720;52.638;9.216;2023-04-20T04:29:23;101754.09;;;6.73;100.00
32033;BME280;31720;52.638;9.216;2023-04-20T04:32:25;101751.28;;;6.82;100.00
32033;BME280;31720;52.638;9.216;2023-04-20T04:35:27;101750.44;;;6.80;100.00
32033;BME280;31720;52.638;9.216;2023-04-20T04:38:29;101751.34;;;6.79;100.00
32033;BME280;31720;52.638;9.216;2023-04-20T04:41:33;101752.41;;;6.72;100.00
32033;BME280;31720;52.638;9.216;2023-04-20T04:44:35;101752.34;;;6.74;100.00
32033;BME280;31720;52.638;9.216;2023-04-20T04:47:39;101746.31;;;6.70;100.00
32033;BME280;31720;52.638;9.216;2023-04-20T04:50:41;101755.13;;;6.66;100.00
32033;BME280;31720;52.638;9.216;2023-04-20T04:53:42;101751.66;;;6.66;100.00
32033;BME280;31720;52.638;9.216;2023-04-20T04:56:47;101749.59;;;6.80;100.00
32033;BME280;31720;52.638;9.216;2023-04-20T04:59:49;101763.41;;;6.86;100.00
32033;BME280;31720;52.638;9.216;2023-04-20T05:02:51;101762.47;;;6.89;100.00
32033;BME280;31720;52.638;9.216;2023-04-20T05:05:53;101761.66;;;6.85;100.00
32033;BME280;31720;52.638;9.216;2023-04-20T05:08:55;101758.00;;;6.94;100.00
32033;BME280;31720;52.638;9.216;2023-04-20T05:11:58;101766.72;;;6.93;100.00
32033;BME280;31720;52.638;9.216;2023-04-20T05:15:00;101771.16;;;6.90;100.00
32033;BME280;31720;52.638;9.216;2023-04-20T05:18:01;101774.56;;;6.93;100.00
32033;BME280;31720;52.638;9.216;2023-04-20T05:21:03;101775.72;;;6.80;100.00
32033;BME280;31720;52.638;9.216;2023-04-20T05:24:04;101772.28;;;6.78;100.00
32033;BME280;31720;52.638;9.216;2023-04-20T05:27:08;101775.63;;;6.84;100.00
32033;BME280;31720;52.638;9.216;2023-04-20T05:30:10;101778.13;;;6.89;100.00
32033;BME280;31720;52.638;9.216;2023-04-20T05:33:12;101777.97;;;6.97;100.00
32033;BME280;31720;52.638;9.216;2023-04-20T05:36:14;101779.94;;;6.85;100.00
32033;BME280;31720;52.638;9.216;2023-04-20T05:39:15;101788.53;;;6.92;100.00
32033;BME280;31720;52.638;9.216;2023-04-20T05:42:18;101786.81;;;6.91;100.00
32033;BME280;31720;52.638;9.216;2023-04-20T05:45:19;101787.84;;;6.84;100.00
32033;BME280;31720;52.638;9.216;2023-04-20T05:48:21;101785.19;;;6.85;100.00
32033;BME280;31720;52.638;9.216;2023-04-20T05:51:22;101788.63;;;6.88;100.00
32033;BME280;31720;52.638;9.216;2023-04-20T05:54:28;101788.38;;;6.98;100.00
32033;BME280;31720;52.638;9.216;2023-04-20T05:57:31;101788.38;;;7.00;100.00
32033;BME280;31720;52.638;9.216;2023-04-20T06:00:32;101791.16;;;6.92;100.00
32033;BME280;31720;52.638;9.216;2023-04-20T06:03:34;101788.38;;;7.00;100.00
32033;BME280;31720;52.638;9.216;2023-04-20T06:06:36;101787.47;;;7.01;100.00
32033;BME280;31720;52.638;9.216;2023-04-20T06:09:37;101782.34;;;6.96;100.00
32033;BME280;31720;52.638;9.216;2023-04-20T06:12:40;101783.97;;;7.02;100.00
32033;BME280;31720;52.638;9.216;2023-04-20T06:15:41;101785.78;;;6.98;100.00
32033;BME280;31720;52.638;9.216;2023-04-20T06:18:43;101792.59;;;7.05;100.00
32033;BME280;31720;52.638;9.216;2023-04-20T06:21:44;101789.25;;;7.00;100.00
32033;BME280;31720;52.638;9.216;2023-04-20T06:24:46;101792.66;;;7.02;100.00
32033;BME280;31720;52.638;9.216;2023-04-20T06:27:49;101798.53;;;7.14;100.00
32033;BME280;31720;52.638;9.216;2023-04-20T06:30:50;101792.59;;;7.05;100.00
32033;BME280;31720;52.638;9.216;2023-04-20T06:33:51;101783.91;;;7.03;100.00
32033;BME280;31720;52.638;9.216;2023-04-20T06:36:53;101782.75;;;7.17;100.00
32033;BME280;31720;52.638;9.216;2023-04-20T06:39:54;101782.16;;;7.05;100.00
32033;BME280;31720;52.638;9.216;2023-04-20T06:42:57;101784.78;;;7.04;100.00
32033;BME280;31720;52.638;9.216;2023-04-20T06:45:59;101778.50;;;7.12;100.00
32033;BME280;31720;52.638;9.216;2023-04-20T06:49:00;101778.38;;;7.17;100.00
32033;BME280;31720;52.638;9.216;2023-04-20T06:52:02;101780.16;;;7.17;100.00
32033;BME280;31720;52.638;9.216;2023-04-20T06:55:04;101774.66;;;7.29;100.00
32033;BME280;31720;52.638;9.216;2023-04-20T06:58:07;101781.34;;;7.41;100.00
32033;BME280;31720;52.638;9.216;2023-04-20T07:01:08;101778.47;;;7.51;100.00
32033;BME280;31720;52.638;9.216;2023-04-20T07:04:10;101788.13;;;7.48;100.00
32033;BME280;31720;52.638;9.216;2023-04-20T07:07:11;101785.47;;;7.51;100.00
32033;BME280;31720;52.638;9.216;2023-04-20T07:10:13;101787.34;;;7.46;100.00
32033;BME280;31720;52.638;9.216;2023-04-20T07:13:16;101785.47;;;7.49;100.00
32033;BME280;31720;52.638;9.216;2023-04-20T07:16:18;101795.19;;;7.46;100.00
32033;BME280;31720;52.638;9.216;2023-04-20T07:19:19;101791.81;;;7.41;100.00
32033;BME280;31720;52.638;9.216;2023-04-20T07:22:20;101788.03;;;7.52;100.00
32033;BME280;31720;52.638;9.216;2023-04-20T07:25:22;101791.44;;;7.56;100.00
32033;BME280;31720;52.638;9.216;2023-04-20T07:28:26;101779.09;;;7.61;100.00
32033;BME280;31720;52.638;9.216;2023-04-20T07:31:27;101786.56;;;7.76;100.00
32033;BME280;31720;52.638;9.216;2023-04-20T07:34:29;101785.19;;;7.97;100.00
32033;BME280;31720;52.638;9.216;2023-04-20T07:37:30;101785.06;;;8.02;100.00
32033;BME280;31720;52.638;9.216;2023-04-20T07:40:31;101787.84;;;7.96;100.00
32033;BME280;31720;52.638;9.216;2023-04-20T07:43:34;101792.91;;;8.02;100.00
32033;BME280;31720;52.638;9.216;2023-04-20T07:46:36;101794.25;;;8.17;100.00
32033;BME280;31720;52.638;9.216;2023-04-20T07:49:37;101797.72;;;8.19;100.00
32033;BME280;31720;52.638;9.216;2023-04-20T07:52:40;101802.56;;;8.32;100.00
32033;BME280;31720;52.638;9.216;2023-04-20T07:55:43;101804.53;;;8.24;100.00
32033;BME280;31720;52.638;9.216;2023-04-20T07:58:46;101800.72;;;8.37;100.00
32033;BME280;31720;52.638;9.216;2023-04-20T08:01:47;101803.03;;;8.50;100.00
32033;BME280;31720;52.638;9.216;2023-04-20T08:04:49;101796.34;;;8.38;100.00
32033;BME280;31720;52.638;9.216;2023-04-20T08:07:51;101797.97;;;8.42;100.00
32033;BME280;31720;52.638;9.216;2023-04-20T08:10:52;101798.56;;;8.52;100.00
32033;BME280;31720;52.638;9.216;2023-04-20T08:13:57;101802.00;;;8.54;100.00
32033;BME280;31720;52.638;9.216;2023-04-20T08:16:59;101795.50;;;8.69;100.00
32033;BME280;31720;52.638;9.216;2023-04-20T08:20:00;101797.16;;;8.71;97.45
32033;BME280;31720;52.638;9.216;2023-04-20T08:23:03;101798.66;;;8.80;95.80
32033;BME280;31720;52.638;9.216;2023-04-20T08:26:05;101795.88;;;8.84;94.65
32033;BME280;31720;52.638;9.216;2023-04-20T08:29:08;101800.88;;;8.94;93.79
32033;BME280;31720;52.638;9.216;2023-04-20T08:32:09;101804.66;;;8.83;92.76
32033;BME280;31720;52.638;9.216;2023-04-20T08:35:11;101807.34;;;8.82;92.73
32033;BME280;31720;52.638;9.216;2023-04-20T08:38:13;101806.50;;;8.81;91.97
32033;BME280;31720;52.638;9.216;2023-04-20T08:41:14;101800.53;;;8.75;91.96
32033;BME280;31720;52.638;9.216;2023-04-20T08:44:17;101802.38;;;8.71;92.17
32033;BME280;31720;52.638;9.216;2023-04-20T08:47:19;101799.78;;;8.71;91.21
32033;BME280;31720;52.638;9.216;2023-04-20T08:50:21;101798.97;;;8.69;91.21
32033;BME280;31720;52.638;9.216;2023-04-20T08:53:22;101795.34;;;8.73;91.22
32033;BME280;31720;52.638;9.216;2023-04-20T08:56:32;101805.47;;;8.85;90.70
32033;BME280;31720;52.638;9.216;2023-04-20T08:59:37;101803.22;;;8.73;90.01
32033;BME280;31720;52.638;9.216;2023-04-20T09:02:47;101804.00;;;8.77;91.93
32033;BME280;31720;52.638;9.216;2023-04-20T09:05:49;101807.38;;;8.80;92.07
32033;BME280;31720;52.638;9.216;2023-04-20T09:08:51;101804.59;;;8.85;90.16
32033;BME280;31720;52.638;9.216;2023-04-20T09:11:59;101806.34;;;8.86;88.99
32033;BME280;31720;52.638;9.216;2023-04-20T09:15:03;101811.31;;;8.95;88.02
32033;BME280;31720;52.638;9.216;2023-04-20T09:18:12;101803.63;;;9.19;89.70
32033;BME280;31720;52.638;9.216;2023-04-20T09:21:14;101806.31;;;9.45;88.28
32033;BME280;31720;52.638;9.216;2023-04-20T09:24:16;101798.00;;;9.57;85.89
32033;BME280;31720;52.638;9.216;2023-04-20T09:27:18;101797.28;;;9.54;83.64
32033;BME280;31720;52.638;9.216;2023-04-20T09:30:23;101799.94;;;9.52;81.72
32033;BME280;31720;52.638;9.216;2023-04-20T09:33:27;101798.00;;;9.59;83.65
32033;BME280;31720;52.638;9.216;2023-04-20T09:36:36;101802.22;;;9.63;81.79
32033;BME280;31720;52.638;9.216;2023-04-20T09:39:41;101797.78;;;9.65;80.85
32033;BME280;31720;52.638;9.216;2023-04-20T09:42:43;101798.56;;;9.67;79.85
32033;BME280;31720;52.638;9.216;2023-04-20T09:45:47;101799.19;;;9.75;80.00
32033;BME280;31720;52.638;9.216;2023-04-20T09:48:49;101793.00;;;9.78;78.57
32033;BME280;31720;52.638;9.216;2023-04-20T09:51:51;101793.38;;;9.92;79.51
32033;BME280;31720;52.638;9.216;2023-04-20T09:54:53;101788.91;;;9.94;76.89
32033;BME280;31720;52.638;9.216;2023-04-20T09:57:55;101785.97;;;10.03;76.81
32033;BME280;31720;52.638;9.216;2023-04-20T10:00:59;101783.91;;;10.13;77.59
32033;BME280;31720;52.638;9.216;2023-04-20T10:04:05;101780.47;;;10.11;74.14
32033;BME280;31720;52.638;9.216;2023-04-20T10:07:07;101784.19;;;10.05;74.38
32033;BME280;31720;52.638;9.216;2023-04-20T10:10:09;101792.91;;;10.06;73.96
32033;BME280;31720;52.638;9.216;2023-04-20T10:13:11;101786.38;;;10.18;73.96
32033;BME280;31720;52.638;9.216;2023-04-20T10:16:18;101796.94;;;10.16;71.73
32033;BME280;31720;52.638;9.216;2023-04-20T10:19:20;101786.31;;;10.19;70.64
32033;BME280;31720;52.638;9.216;2023-04-20T10:22:25;101789.97;;;10.15;72.18
32033;BME280;31720;52.638;9.216;2023-04-20T10:25:29;101794.38;;;10.14;72.97
32033;BME280;31720;52.638;9.216;2023-04-20T10:28:37;101803.25;;;10.10;73.31
32033;BME280;31720;52.638;9.216;2023-04-20T10:31:41;101797.78;;;10.16;72.19
32033;BME280;31720;52.638;9.216;2023-04-20T10:34:42;101793.06;;;10.28;72.25
32033;BME280;31720;52.638;9.216;2023-04-20T10:37:47;101793.06;;;10.28;73.37
32033;BME280;31720;52.638;9.216;2023-04-20T10:40:49;101791.22;;;10.30;73.44
32033;BME280;31720;52.638;9.216;2023-04-20T10:43:50;101787.31;;;10.41;74.12
32033;BME280;31720;52.638;9.216;2023-04-20T10:46:53;101794.53;;;10.60;73.35
32033;BME280;31720;52.638;9.216;2023-04-20T10:50:04;101794.34;;;10.64;71.52
32033;BME280;31720;52.638;9.216;2023-04-20T10:53:16;101781.66;;;10.52;70.41
32033;BME280;31720;52.638;9.216;2023-04-20T10:56:18;101790.38;;;10.53;70.65
32033;BME280;31720;52.638;9.216;2023-04-20T10:59:21;101778.84;;;10.57;68.77
32033;BME280;31720;52.638;9.216;2023-04-20T11:02:25;101777.59;;;10.67;70.06
32033;BME280;31720;52.638;9.216;2023-04-20T11:05:27;101769.16;;;10.82;69.42
32033;BME280;31720;52.638;9.216;2023-04-20T11:08:35;101768.00;;;11.11;69.18
32033;BME280;31720;52.638;9.216;2023-04-20T11:11:37;101761.72;;;11.37;67.35
32033;BME280;31720;52.638;9.216;2023-04-20T11:14:50;101762.03;;;11.52;64.17
32033;BME280;31720;52.638;9.216;2023-04-20T11:17:53;101764.34;;;11.37;63.86
32033;BME280;31720;52.638;9.216;2023-04-20T11:20:54;101760.50;;;11.46;64.09
32033;BME280;31720;52.638;9.216;2023-04-20T11:23:56;101766.13;;;11.37;62.16
32033;BME280;31720;52.638;9.216;2023-04-20T11:26:58;101760.31;;;11.29;66.36
32033;BME280;31720;52.638;9.216;2023-04-20T11:30:01;101762.47;;;11.19;66.27
32033;BME280;31720;52.638;9.216;2023-04-20T11:33:06;101763.25;;;11.21;66.01
32033;BME280;31720;52.638;9.216;2023-04-20T11:36:17;101760.88;;;11.15;65.59
32033;BME280;31720;52.638;9.216;2023-04-20T11:39:22;101755.34;;;11.43;67.79
32033;BME280;31720;52.638;9.216;2023-04-20T11:42:23;101750.09;;;11.85;64.14
32033;BME280;31720;52.638;9.216;2023-04-20T11:45:25;101742.94;;;11.67;63.44
32033;BME280;31720;52.638;9.216;2023-04-20T11:48:29;101743.22;;;11.61;65.69
32033;BME280;31720;52.638;9.216;2023-04-20T11:51:31;101730.44;;;11.52;65.82
32033;BME280;31720;52.638;9.216;2023-04-20T11:54:32;101729.66;;;11.50;66.79
32033;BME280;31720;52.638;9.216;2023-04-20T11:57:34;101734.09;;;11.48;67.08
32033;BME280;31720;52.638;9.216;2023-04-20T12:00:35;101730.13;;;11.59;62.90
32033;BME280;31720;52.638;9.216;2023-04-20T12:03:38;101729.56;;;11.51;63.03
32033;BME280;31720;52.638;9.216;2023-04-20T12:06:39;101730.41;;;11.74;64.52
32033;BME280;31720;52.638;9.216;2023-04-20T12:09:41;101732.81;;;11.78;63.19
32033;BME280;31720;52.638;9.216;2023-04-20T12:12:43;101724.47;;;11.68;62.50
32033;BME280;31720;52.638;9.216;2023-04-20T12:15:45;101724.28;;;11.73;63.15
32033;BME280;31720;52.638;9.216;2023-04-20T12:18:48;101727.38;;;12.24;64.05
32033;BME280;31720;52.638;9.216;2023-04-20T12:21:49;101716.84;;;12.99;60.45
32033;BME280;31720;52.638;9.216;2023-04-20T12:24:50;101706.16;;;13.38;58.19
32033;BME280;31720;52.638;9.216;2023-04-20T12:27:52;101702.19;;;13.47;57.49
32033;BME280;31720;52.638;9.216;2023-04-20T12:30:53;101697.06;;;13.61;57.33
32033;BME280;31720;52.638;9.216;2023-04-20T12:33:56;101696.84;;;13.83;56.92
32033;BME280;31720;52.638;9.216;2023-04-20T12:36:57;101683.38;;;14.21;54.92
32033;BME280;31720;52.638;9.216;2023-04-20T12:40:00;101685.66;;;14.11;54.58
32033;BME280;31720;52.638;9.216;2023-04-20T12:43:01;101681.53;;;14.39;56.89
32033;BME280;31720;52.638;9.216;2023-04-20T12:46:03;101684.69;;;14.63;54.05
32033;BME280;31720;52.638;9.216;2023-04-20T12:49:05;101686.75;;;14.07;53.61
32033;BME280;31720;52.638;9.216;2023-04-20T12:52:07;101684.03;;;13.58;53.46
32033;BME280;31720;52.638;9.216;2023-04-20T12:55:09;101683.34;;;13.37;54.25
32033;BME280;31720;52.638;9.216;2023-04-20T12:58:10;101678.94;;;13.19;56.67
32033;BME280;31720;52.638;9.216;2023-04-20T13:01:12;101681.63;;;13.00;56.11
32033;BME280;31720;52.638;9.216;2023-04-20T13:04:15;101675.09;;;12.90;54.83
32033;BME280;31720;52.638;9.216;2023-04-20T13:07:16;101663.94;;;13.19;55.07
32033;BME280;31720;52.638;9.216;2023-04-20T13:10:17;101668.13;;;13.60;53.13
32033;BME280;31720;52.638;9.216;2023-04-20T13:13:19;101669.81;;;13.43;54.91
32033;BME280;31720;52.638;9.216;2023-04-20T13:16:20;101673.75;;;13.17;52.56
32033;BME280;31720;52.638;9.216;2023-04-20T13:19:23;101672.84;;;13.17;55.02
32033;BME280;31720;52.638;9.216;2023-04-20T13:22:24;101671.09;;;13.17;53.45
32033;BME280;31720;52.638;9.216;2023-04-20T13:25:28;101668.97;;;13.43;52.71
32033;BME280;31720;52.638;9.216;2023-04-20T13:28:31;101663.63;;;13.44;53.20
32033;BME280;31720;52.638;9.216;2023-04-20T13:31:33;101658.88;;;13.51;55.72
32033;BME280;31720;52.638;9.216;2023-04-20T13:34:37;101663.22;;;13.69;54.12
32033;BME280;31720;52.638;9.216;2023-04-20T13:37:39;101665.22;;;13.64;52.61
32033;BME280;31720;52.638;9.216;2023-04-20T13:40:41;101671.88;;;13.71;52.18
32033;BME280;31720;52.638;9.216;2023-04-20T13:43:43;101669.47;;;13.84;50.71
32033;BME280;31720;52.638;9.216;2023-04-20T13:46:46;101668.94;;;13.78;49.38
32033;BME280;31720;52.638;9.216;2023-04-20T13:49:49;101660.56;;;13.69;49.94
32033;BME280;31720;52.638;9.216;2023-04-20T13:52:50;101657.16;;;13.67;51.83
32033;BME280;31720;52.638;9.216;2023-04-20T13:55:52;101664.00;;;13.54;53.00
32033;BME280;31720;52.638;9.216;2023-04-20T13:58:53;101660.34;;;13.39;54.68
32033;BME280;31720;52.638;9.216;2023-04-20T14:01:55;101657.47;;;13.44;55.19
32033;BME280;31720;52.638;9.216;2023-04-20T14:04:57;101656.22;;;13.51;53.17
32033;BME280;31720;52.638;9.216;2023-04-20T14:07:59;101655.75;;;13.43;54.06
32033;BME280;31720;52.638;9.216;2023-04-20T14:11:00;101648.84;;;13.23;55.31
32033;BME280;31720;52.638;9.216;2023-04-20T14:14:02;101649.09;;;13.17;55.24
32033;BME280;31720;52.638;9.216;2023-04-20T14:17:03;101644.28;;;13.08;56.64
32033;BME280;31720;52.638;9.216;2023-04-20T14:20:07;101644.97;;;12.94;59.21
32033;BME280;31720;52.638;9.216;2023-04-20T14:23:09;101654.19;;;12.66;63.12
32033;BME280;31720;52.638;9.216;2023-04-20T14:26:10;101668.13;;;12.51;66.64
32033;BME280;31720;52.638;9.216;2023-04-20T14:29:12;101664.13;;;12.42;68.87
32033;BME280;31720;52.638;9.216;2023-04-20T14:32:13;101655.50;;;12.39;70.08
32033;BME280;31720;52.638;9.216;2023-04-20T14:35:16;101657.41;;;12.16;69.12
32033;BME280;31720;52.638;9.216;2023-04-20T14:38:18;101654.06;;;12.13;71.43
32033;BME280;31720;52.638;9.216;2023-04-20T14:41:19;101652.91;;;11.79;70.06
32033;BME280;31720;52.638;9.216;2023-04-20T14:44:21;101655.59;;;11.78;72.14
32033;BME280;31720;52.638;9.216;2023-04-20T14:47:22;101656.59;;;11.75;73.33
32033;BME280;31720;52.638;9.216;2023-04-20T14:50:25;101659.78;;;11.63;72.38
32033;BME280;31720;52.638;9.216;2023-04-20T14:53:27;101660.94;;;11.56;75.11
32033;BME280;31720;52.638;9.216;2023-04-20T14:56:28;101658.78;;;11.45;77.41
32033;BME280;31720;52.638;9.216;2023-04-20T14:59:30;101654.56;;;11.41;75.84
32033;BME280;31720;52.638;9.216;2023-04-20T15:02:31;101652.84;;;11.40;76.56
32033;BME280;31720;52.638;9.216;2023-04-20T15:05:34;101656.56;;;11.34;73.85
32033;BME280;31720;52.638;9.216;2023-04-20T15:08:35;101658.44;;;11.32;75.05
32033;BME280;31720;52.638;9.216;2023-04-20T15:11:37;101666.75;;;11.22;73.36
32033;BME280;31720;52.638;9.216;2023-04-20T15:14:38;101647.06;;;11.10;72.42
32033;BME280;31720;52.638;9.216;2023-04-20T15:17:40;101653.78;;;11.17;73.13
32033;BME280;31720;52.638;9.216;2023-04-20T15:20:42;101651.09;;;11.18;71.97
32033;BME280;31720;52.638;9.216;2023-04-20T15:23:44;101642.84;;;11.06;71.08
32033;BME280;31720;52.638;9.216;2023-04-20T15:26:45;101650.50;;;11.12;71.99
32033;BME280;31720;52.638;9.216;2023-04-20T15:29:47;101652.16;;;11.14;72.29
32033;BME280;31720;52.638;9.216;2023-04-20T15:32:48;101651.59;;;11.06;73.09
32033;BME280;31720;52.638;9.216;2023-04-20T15:35:51;101657.91;;;11.02;73.04
32033;BME280;31720;52.638;9.216;2023-04-20T15:38:52;101653.94;;;10.92;75.78
32033;BME280;31720;52.638;9.216;2023-04-20T15:41:54;101659.63;;;10.81;76.21
32033;BME280;31720;52.638;9.216;2023-04-20T15:44:55;101654.25;;;10.84;77.43
32033;BME280;31720;52.638;9.216;2023-04-20T15:47:56;101658.94;;;10.76;79.01
32033;BME280;31720;52.638;9.216;2023-04-20T15:51:01;101662.56;;;10.74;78.69
32033;BME280;31720;52.638;9.216;2023-04-20T15:54:03;101665.09;;;10.77;79.19
32033;BME280;31720;52.638;9.216;2023-04-20T15:57:04;101665.75;;;10.82;79.84